createdAt,value
2018-12-13T00:01:13.254Z,2.40
2018-12-13T00:03:41.489Z,2.40
2018-12-13T00:06:09.707Z,2.40
2018-12-13T00:08:37.889Z,2.30
2018-12-13T00:11:06.134Z,2.30
2018-12-13T00:13:34.328Z,2.30
2018-12-13T00:16:02.590Z,2.30
2018-12-13T00:18:30.795Z,2.30
2018-12-13T00:20:59.012Z,2.30
2018-12-13T00:23:27.199Z,2.30
2018-12-13T00:25:55.406Z,2.20
2018-12-13T00:28:23.655Z,2.20
2018-12-13T00:30:51.831Z,2.20
2018-12-13T00:33:20.013Z,2.10
2018-12-13T00:35:48.290Z,2.10
2018-12-13T00:38:16.591Z,2.10
2018-12-13T00:40:44.778Z,2.10
2018-12-13T00:43:12.996Z,2.00
2018-12-13T00:45:41.297Z,2.00
2018-12-13T00:48:09.894Z,2.00
2018-12-13T00:50:38.131Z,2.00
2018-12-13T00:53:06.420Z,2.00
2018-12-13T00:55:34.689Z,2.00
2018-12-13T00:58:04.813Z,2.00
2018-12-13T01:00:33.006Z,1.90
2018-12-13T01:03:01.227Z,1.90
2018-12-13T01:05:29.489Z,1.90
2018-12-13T01:07:57.681Z,1.90
2018-12-13T01:10:25.860Z,1.90
2018-12-13T01:12:54.155Z,1.90
2018-12-13T01:15:22.351Z,1.90
2018-12-13T01:17:50.612Z,1.90
2018-12-13T01:20:18.837Z,1.90
2018-12-13T01:22:47.048Z,1.90
2018-12-13T01:25:15.248Z,1.80
2018-12-13T01:27:43.497Z,1.80
2018-12-13T01:30:11.670Z,1.80
2018-12-13T01:32:39.884Z,1.80
2018-12-13T01:35:08.190Z,1.80
2018-12-13T01:37:36.516Z,1.70
2018-12-13T01:40:04.775Z,1.70
2018-12-13T01:42:32.984Z,1.70
2018-12-13T01:45:01.203Z,1.60
2018-12-13T01:47:29.429Z,1.60
2018-12-13T01:50:00.634Z,1.60
2018-12-13T01:52:28.824Z,1.50
2018-12-13T01:54:57.037Z,1.50
2018-12-13T01:57:25.296Z,1.50
2018-12-13T01:59:53.500Z,1.50
2018-12-13T02:02:21.672Z,1.50
2018-12-13T02:04:49.984Z,1.50
2018-12-13T02:07:18.192Z,1.40
2018-12-13T02:09:46.448Z,1.50
2018-12-13T02:12:14.708Z,1.50
2018-12-13T02:14:42.914Z,1.50
2018-12-13T02:17:11.122Z,1.50
2018-12-13T02:19:39.322Z,1.40
2018-12-13T02:22:07.499Z,1.50
2018-12-13T02:24:36.695Z,1.50
2018-12-13T02:27:05.394Z,1.50
2018-12-13T02:29:33.664Z,1.40
2018-12-13T02:32:01.861Z,1.40
2018-12-13T02:34:30.071Z,1.40
2018-12-13T02:36:58.318Z,1.40
2018-12-13T02:39:27.197Z,1.40
2018-12-13T02:41:55.407Z,1.40
2018-12-13T02:44:23.618Z,1.40
2018-12-13T02:46:51.836Z,1.40
2018-12-13T02:49:20.076Z,1.40
2018-12-13T02:51:48.242Z,1.40
2018-12-13T02:54:16.534Z,1.40
2018-12-13T02:56:44.743Z,1.40
2018-12-13T02:59:12.952Z,1.30
2018-12-13T03:01:41.141Z,1.30
2018-12-13T03:04:09.319Z,1.30
2018-12-13T03:06:37.548Z,1.30
2018-12-13T03:09:07.211Z,1.40
2018-12-13T03:11:35.409Z,1.30
2018-12-13T03:14:03.714Z,1.40
2018-12-13T03:16:32.040Z,1.40
2018-12-13T03:19:00.410Z,1.40
2018-12-13T03:21:28.708Z,1.40
2018-12-13T03:23:56.947Z,1.40
2018-12-13T03:26:25.229Z,1.40
2018-12-13T03:28:53.489Z,1.40
2018-12-13T03:31:21.699Z,1.40
2018-12-13T03:33:49.897Z,1.40
2018-12-13T03:36:18.154Z,1.40
2018-12-13T03:38:46.341Z,1.40
2018-12-13T03:41:14.639Z,1.40
2018-12-13T03:43:42.867Z,1.40
2018-12-13T03:46:11.077Z,1.40
2018-12-13T03:48:39.315Z,1.40
2018-12-13T03:51:07.541Z,1.50
2018-12-13T03:53:35.955Z,1.50
2018-12-13T03:56:04.233Z,1.50
2018-12-13T03:58:32.433Z,1.50
2018-12-13T04:01:00.647Z,1.50
2018-12-13T04:03:30.761Z,1.50
2018-12-13T04:05:58.948Z,1.50
2018-12-13T04:08:28.122Z,1.50
2018-12-13T04:10:56.322Z,1.60
2018-12-13T04:13:24.567Z,1.60
2018-12-13T04:15:52.805Z,1.60
2018-12-13T04:18:21.002Z,1.60
2018-12-13T04:20:49.199Z,1.60
2018-12-13T04:23:17.407Z,1.60
2018-12-13T04:25:45.693Z,1.60
2018-12-13T04:28:13.867Z,1.60
2018-12-13T04:30:42.066Z,1.60
2018-12-13T04:33:10.296Z,1.60
2018-12-13T04:35:38.816Z,1.60
2018-12-13T04:38:07.139Z,1.60
2018-12-13T04:40:35.351Z,1.70
2018-12-13T04:43:03.539Z,1.70
2018-12-13T04:45:31.757Z,1.60
2018-12-13T04:48:00.683Z,1.70
2018-12-13T04:50:28.961Z,1.70
2018-12-13T04:52:57.155Z,1.70
2018-12-13T04:55:25.488Z,1.70
2018-12-13T04:57:53.697Z,1.70
2018-12-13T05:00:21.902Z,1.70
2018-12-13T05:02:50.133Z,1.60
2018-12-13T05:05:18.337Z,1.60
2018-12-13T05:07:47.523Z,1.60
2018-12-13T05:13:16.171Z,1.60
2018-12-13T05:15:44.359Z,1.60
2018-12-13T05:18:12.785Z,1.50
2018-12-13T05:20:41.003Z,1.50
2018-12-13T05:23:09.201Z,1.50
2018-12-13T05:25:37.379Z,1.50
2018-12-13T05:28:05.576Z,1.50
2018-12-13T05:30:33.813Z,1.50
2018-12-13T05:33:01.989Z,1.50
2018-12-13T05:35:30.168Z,1.40
2018-12-13T05:37:58.369Z,1.40
2018-12-13T05:40:26.566Z,1.40
2018-12-13T05:42:54.907Z,1.40
2018-12-13T05:45:23.081Z,1.40
2018-12-13T05:47:52.227Z,1.30
2018-12-13T05:50:20.503Z,1.30
2018-12-13T05:52:48.682Z,1.30
2018-12-13T05:55:16.897Z,1.20
2018-12-13T05:57:45.180Z,1.20
2018-12-13T06:00:13.547Z,1.10
2018-12-13T06:02:41.745Z,1.10
2018-12-13T06:05:10.103Z,1.10
2018-12-13T06:07:38.309Z,1.00
2018-12-13T06:10:07.224Z,1.00
2018-12-13T06:12:35.425Z,0.90
2018-12-13T06:15:04.527Z,0.90
2018-12-13T06:17:32.731Z,0.90
2018-12-13T06:20:00.979Z,0.90
2018-12-13T06:22:29.171Z,0.90
2018-12-13T06:24:57.442Z,0.90
2018-12-13T06:27:25.658Z,0.90
2018-12-13T06:29:58.872Z,0.90
2018-12-13T06:32:24.168Z,0.90
2018-12-13T06:34:52.380Z,0.90
2018-12-13T06:37:20.662Z,0.90
2018-12-13T06:39:49.505Z,0.90
2018-12-13T06:42:17.888Z,0.80
2018-12-13T06:44:46.095Z,0.90
2018-12-13T06:47:14.276Z,0.90
2018-12-13T06:49:42.522Z,0.90
2018-12-13T06:52:10.774Z,0.80
2018-12-13T06:54:38.986Z,0.80
2018-12-13T06:57:07.180Z,0.80
2018-12-13T06:59:35.440Z,0.80
2018-12-13T07:02:03.854Z,0.80
2018-12-13T07:04:32.044Z,0.80
2018-12-13T07:07:00.270Z,0.80
2018-12-13T07:09:28.486Z,0.80
2018-12-13T07:11:56.696Z,0.80
2018-12-13T07:14:24.980Z,0.80
2018-12-13T07:16:53.173Z,0.80
2018-12-13T07:19:21.371Z,0.80
2018-12-13T07:21:49.720Z,0.80
2018-12-13T07:24:17.956Z,0.80
2018-12-13T07:26:46.134Z,0.80
2018-12-13T07:29:14.374Z,0.80
2018-12-13T07:31:42.579Z,0.80
2018-12-13T07:34:10.765Z,0.80
2018-12-13T07:36:39.072Z,0.80
2018-12-13T07:39:07.607Z,0.80
2018-12-13T07:41:35.802Z,0.80
2018-12-13T07:44:04.361Z,0.80
2018-12-13T07:46:32.579Z,0.80
2018-12-13T07:49:00.759Z,0.80
2018-12-13T07:51:28.987Z,0.90
2018-12-13T07:53:57.191Z,0.90
2018-12-13T07:56:25.382Z,0.90
2018-12-13T07:58:53.631Z,0.90
2018-12-13T08:01:21.796Z,0.90
2018-12-13T08:03:50.056Z,0.90
2018-12-13T08:06:18.266Z,0.90
2018-12-13T08:08:46.544Z,1.00
2018-12-13T08:11:15.021Z,1.00
2018-12-13T08:13:44.400Z,1.00
2018-12-13T08:16:12.585Z,1.00
2018-12-13T08:18:40.775Z,1.00
2018-12-13T08:21:09.034Z,1.10
2018-12-13T08:23:37.249Z,1.10
2018-12-13T08:26:05.412Z,1.10
2018-12-13T08:28:33.965Z,1.20
2018-12-13T08:31:02.319Z,1.20
2018-12-13T08:33:30.563Z,1.20
2018-12-13T08:35:58.760Z,1.30
2018-12-13T08:38:27.438Z,1.30
2018-12-13T08:40:55.880Z,1.40
2018-12-13T08:43:24.092Z,1.40
2018-12-13T08:45:52.277Z,1.40
2018-12-13T08:48:20.587Z,1.50
2018-12-13T08:50:48.824Z,1.50
2018-12-13T08:53:17.027Z,1.60
2018-12-13T08:55:45.480Z,1.60
2018-12-13T08:58:13.680Z,1.60
2018-12-13T09:00:41.960Z,1.70
2018-12-13T09:03:10.230Z,1.70
2018-12-13T09:05:38.380Z,1.80
2018-12-13T09:08:06.586Z,1.80
2018-12-13T09:10:34.780Z,1.80
2018-12-13T09:13:03.016Z,1.90
2018-12-13T09:15:31.307Z,1.90
2018-12-13T09:17:59.480Z,2.00
2018-12-13T09:20:27.684Z,2.00
2018-12-13T09:22:55.916Z,2.00
2018-12-13T09:25:24.204Z,2.10
2018-12-13T09:27:52.388Z,2.10
2018-12-13T09:30:20.650Z,2.20
2018-12-13T09:32:48.936Z,2.20
2018-12-13T09:35:17.121Z,2.20
2018-12-13T09:37:47.693Z,2.30
2018-12-13T09:40:15.575Z,2.30
2018-12-13T09:42:43.772Z,2.30
2018-12-13T09:45:12.055Z,2.30
2018-12-13T09:47:40.336Z,2.40
2018-12-13T09:50:08.510Z,2.40
2018-12-13T09:52:36.724Z,2.50
2018-12-13T09:55:05.908Z,2.50
2018-12-13T09:57:34.487Z,2.50
2018-12-13T10:00:05.044Z,2.50
2018-12-13T10:02:33.361Z,2.60
2018-12-13T10:05:01.634Z,2.60
2018-12-13T10:07:29.859Z,2.60
2018-12-13T10:09:58.192Z,2.60
2018-12-13T10:12:26.392Z,2.60
2018-12-13T10:14:54.588Z,2.60
2018-12-13T10:17:22.788Z,2.60
2018-12-13T10:19:51.052Z,2.60
2018-12-13T10:22:19.234Z,2.70
2018-12-13T10:24:47.526Z,2.70
2018-12-13T10:27:15.899Z,2.70
2018-12-13T10:29:44.102Z,2.80
2018-12-13T10:32:12.457Z,2.80
2018-12-13T10:34:40.642Z,2.80
2018-12-13T10:37:08.893Z,2.80
2018-12-13T10:39:37.577Z,2.90
2018-12-13T10:42:05.791Z,2.90
2018-12-13T10:44:35.274Z,2.90
2018-12-13T10:47:03.885Z,2.90
2018-12-13T10:49:32.090Z,2.90
2018-12-13T10:52:00.343Z,2.90
2018-12-13T10:54:28.557Z,3.00
2018-12-13T10:56:56.748Z,3.00
2018-12-13T10:59:24.940Z,3.10
2018-12-13T11:01:59.046Z,3.10
2018-12-13T11:04:27.318Z,3.10
2018-12-13T11:06:55.612Z,3.10
2018-12-13T11:09:24.100Z,3.10
2018-12-13T11:11:52.365Z,3.10
2018-12-13T11:14:20.559Z,3.10
2018-12-13T11:16:48.736Z,3.10
2018-12-13T11:19:16.928Z,3.10
2018-12-13T11:21:45.148Z,3.20
2018-12-13T11:24:13.338Z,3.20
2018-12-13T11:26:41.557Z,3.20
2018-12-13T11:29:21.886Z,3.30
2018-12-13T11:31:50.037Z,3.30
2018-12-13T11:34:18.228Z,3.30
2018-12-13T11:36:46.424Z,3.30
2018-12-13T11:39:14.643Z,3.30
2018-12-13T11:41:43.013Z,3.30
2018-12-13T11:44:11.232Z,3.30
2018-12-13T11:46:39.540Z,3.30
2018-12-13T11:49:12.151Z,3.40
2018-12-13T11:51:37.936Z,3.40
2018-12-13T11:54:11.060Z,3.40
2018-12-13T11:56:39.324Z,3.40
2018-12-13T11:59:07.524Z,3.40
2018-12-13T12:01:35.701Z,3.30
2018-12-13T12:04:03.925Z,3.40
2018-12-13T12:06:32.724Z,3.40
2018-12-13T12:09:00.901Z,3.40
2018-12-13T12:11:29.096Z,3.40
2018-12-13T12:13:57.277Z,3.40
2018-12-13T12:16:25.476Z,3.40
2018-12-13T12:18:53.684Z,3.40
2018-12-13T12:21:21.857Z,3.40
2018-12-13T12:23:50.148Z,3.40
2018-12-13T12:26:18.349Z,3.40
2018-12-13T12:28:46.513Z,3.40
2018-12-13T12:31:14.708Z,3.50
2018-12-13T12:33:42.961Z,3.50
2018-12-13T12:36:11.221Z,3.50
2018-12-13T12:38:39.399Z,3.50
2018-12-13T12:41:07.573Z,3.50
2018-12-13T12:43:35.757Z,3.50
2018-12-13T12:46:04.046Z,3.50
2018-12-13T12:48:32.292Z,3.50
2018-12-13T12:51:01.901Z,3.50
2018-12-13T12:53:30.103Z,3.60
2018-12-13T12:55:58.274Z,3.60
2018-12-13T12:58:26.444Z,3.60
2018-12-13T13:00:54.695Z,3.50
2018-12-13T13:03:22.884Z,3.50
2018-12-13T13:05:51.147Z,3.50
2018-12-13T13:08:19.425Z,3.50
2018-12-13T13:10:47.641Z,3.50
2018-12-13T13:13:15.811Z,3.50
2018-12-13T13:15:44.026Z,3.60
2018-12-13T13:18:12.241Z,3.60
2018-12-13T13:20:40.568Z,3.60
2018-12-13T13:23:08.775Z,3.60
2018-12-13T13:25:37.149Z,3.60
2018-12-13T13:28:05.534Z,3.60
2018-12-13T13:30:33.821Z,3.60
2018-12-13T13:33:02.895Z,3.60
2018-12-13T13:35:31.183Z,3.60
2018-12-13T13:37:59.400Z,3.60
2018-12-13T13:40:27.719Z,3.60
2018-12-13T13:42:56.021Z,3.70
2018-12-13T13:45:25.087Z,3.60
2018-12-13T13:47:53.271Z,3.60
2018-12-13T13:50:21.545Z,3.60
2018-12-13T13:52:49.751Z,3.60
2018-12-13T13:55:18.071Z,3.60
2018-12-13T13:57:48.223Z,3.60
2018-12-13T14:00:16.408Z,3.70
2018-12-13T14:02:44.663Z,3.60
2018-12-13T14:05:12.900Z,3.60
2018-12-13T14:07:41.116Z,3.60
2018-12-13T14:10:09.387Z,3.60
2018-12-13T14:12:37.735Z,3.60
2018-12-13T14:15:06.751Z,3.60
2018-12-13T14:17:34.927Z,3.60
2018-12-13T14:20:03.631Z,3.60
2018-12-13T14:22:31.904Z,3.70
2018-12-13T14:25:00.163Z,3.70
2018-12-13T14:27:28.597Z,3.70
2018-12-13T14:29:56.823Z,3.70
2018-12-13T14:32:25.096Z,3.70
2018-12-13T14:34:57.460Z,3.70
2018-12-13T14:37:23.495Z,3.70
2018-12-13T14:39:51.772Z,3.70
2018-12-13T14:42:20.044Z,3.70
2018-12-13T14:44:48.229Z,3.70
2018-12-13T14:47:16.502Z,3.70
2018-12-13T14:49:44.863Z,3.60
2018-12-13T14:52:13.041Z,3.60
2018-12-13T14:54:41.228Z,3.50
2018-12-13T14:57:09.441Z,3.50
2018-12-13T14:59:37.630Z,3.50
2018-12-13T15:02:05.801Z,3.50
2018-12-13T15:04:33.976Z,3.50
2018-12-13T15:07:02.290Z,3.40
2018-12-13T15:09:30.504Z,3.40
2018-12-13T15:11:58.659Z,3.40
2018-12-13T15:14:26.939Z,3.40
2018-12-13T15:16:55.285Z,3.40
2018-12-13T15:19:23.473Z,3.40
2018-12-13T15:21:51.736Z,3.30
2018-12-13T15:24:19.961Z,3.30
2018-12-13T15:26:48.303Z,3.30
2018-12-13T15:29:16.563Z,3.30
2018-12-13T15:31:44.752Z,3.20
2018-12-13T15:34:12.953Z,3.20
2018-12-13T15:36:41.162Z,3.20
2018-12-13T15:39:09.455Z,3.20
2018-12-13T15:41:37.631Z,3.10
2018-12-13T15:44:06.920Z,3.10
2018-12-13T15:46:35.221Z,3.00
2018-12-13T15:49:03.409Z,3.00
2018-12-13T15:51:31.609Z,3.00
2018-12-13T15:53:59.828Z,2.90
2018-12-13T15:56:28.019Z,2.90
2018-12-13T15:58:56.231Z,2.90
2018-12-13T16:01:24.409Z,2.80
2018-12-13T16:03:52.630Z,2.70
2018-12-13T16:06:20.837Z,2.70
2018-12-13T16:08:49.108Z,2.70
2018-12-13T16:11:17.320Z,2.60
2018-12-13T16:13:45.501Z,2.60
2018-12-13T16:16:13.811Z,2.60
2018-12-13T16:18:42.010Z,2.60
2018-12-13T16:21:10.223Z,2.50
2018-12-13T16:23:38.453Z,2.50
2018-12-13T16:26:06.916Z,2.50
2018-12-13T16:28:35.151Z,2.50
2018-12-13T16:31:03.536Z,2.50
2018-12-13T16:33:32.319Z,2.40
2018-12-13T16:36:00.532Z,2.40
2018-12-13T16:38:28.866Z,2.40
2018-12-13T16:40:57.046Z,2.30
2018-12-13T16:43:25.340Z,2.30
2018-12-13T16:45:53.632Z,2.30
2018-12-13T16:48:21.828Z,2.30
2018-12-13T16:50:50.071Z,2.30
2018-12-13T16:53:18.239Z,2.30
2018-12-13T16:55:46.456Z,2.30
2018-12-13T16:58:14.659Z,2.30
2018-12-13T17:00:42.843Z,2.20
2018-12-13T17:03:23.043Z,2.20
2018-12-13T17:05:51.290Z,2.20
2018-12-13T17:08:19.576Z,2.20
2018-12-13T17:10:48.723Z,2.20
2018-12-13T17:13:16.973Z,2.20
2018-12-13T17:15:45.213Z,2.20
2018-12-13T17:18:13.400Z,2.20
2018-12-13T17:20:41.587Z,2.20
2018-12-13T17:23:09.941Z,2.10
2018-12-13T17:25:38.133Z,2.10
2018-12-13T17:28:06.685Z,2.10
2018-12-13T17:30:35.071Z,2.10
2018-12-13T17:33:03.371Z,2.00
2018-12-13T17:35:31.931Z,2.00
2018-12-13T17:38:00.149Z,2.00
2018-12-13T17:40:28.653Z,2.00
2018-12-13T17:42:56.868Z,2.00
2018-12-13T17:45:25.075Z,2.00
2018-12-13T17:47:53.280Z,2.00
2018-12-13T17:50:21.515Z,2.00
2018-12-13T17:52:49.759Z,2.00
2018-12-13T17:55:17.945Z,1.90
2018-12-13T17:57:46.177Z,1.90
2018-12-13T18:00:14.417Z,1.90
2018-12-13T18:02:42.625Z,1.90
2018-12-13T18:05:10.833Z,1.90
2018-12-13T18:07:39.239Z,1.90
2018-12-13T18:10:09.433Z,1.90
2018-12-13T18:12:37.776Z,1.80
2018-12-13T18:15:06.301Z,1.80
2018-12-13T18:17:34.617Z,1.80
2018-12-13T18:20:02.862Z,1.80
2018-12-13T18:22:31.146Z,1.80
2018-12-13T18:24:59.371Z,1.80
2018-12-13T18:27:27.613Z,1.80
2018-12-13T18:29:55.821Z,1.70
2018-12-13T18:32:24.008Z,1.70
2018-12-13T18:34:52.201Z,1.70
2018-12-13T18:37:20.487Z,1.70
2018-12-13T18:39:48.691Z,1.60
2018-12-13T18:42:16.870Z,1.60
2018-12-13T18:44:45.057Z,1.60
2018-12-13T18:47:13.229Z,1.60
2018-12-13T18:49:41.441Z,1.60
2018-12-13T18:52:09.741Z,1.60
2018-12-13T18:54:37.952Z,1.60
2018-12-13T18:57:06.195Z,1.60
2018-12-13T18:59:34.581Z,1.50
2018-12-13T19:02:03.181Z,1.50
2018-12-13T19:04:31.411Z,1.50
2018-12-13T19:06:59.673Z,1.50
2018-12-13T19:09:28.016Z,1.50
2018-12-13T19:11:56.193Z,1.50
2018-12-13T19:14:24.386Z,1.50
2018-12-13T19:16:52.560Z,1.40
2018-12-13T19:19:20.844Z,1.40
2018-12-13T19:21:49.020Z,1.40
2018-12-13T19:24:17.204Z,1.40
2018-12-13T19:26:45.444Z,1.40
2018-12-13T19:29:13.647Z,1.30
2018-12-13T19:31:41.911Z,1.30
2018-12-13T19:34:10.101Z,1.30
2018-12-13T19:36:38.332Z,1.30
2018-12-13T19:39:07.669Z,1.30
2018-12-13T19:41:36.152Z,1.30
2018-12-13T19:44:05.328Z,1.30
2018-12-13T19:46:33.609Z,1.30
2018-12-13T19:49:01.967Z,1.30
2018-12-13T19:51:30.153Z,1.30
2018-12-13T19:53:58.364Z,1.30
2018-12-13T19:56:26.626Z,1.30
2018-12-13T19:58:55.000Z,1.20
2018-12-13T20:01:23.170Z,1.20
2018-12-13T20:03:51.360Z,1.20
2018-12-13T20:06:19.584Z,1.20
2018-12-13T20:08:47.809Z,1.20
2018-12-13T20:11:16.060Z,1.20
2018-12-13T20:13:44.249Z,1.20
2018-12-13T20:16:12.525Z,1.20
2018-12-13T20:18:40.810Z,1.20
2018-12-13T20:21:08.980Z,1.20
2018-12-13T20:23:37.171Z,1.20
2018-12-13T20:26:05.409Z,1.10
2018-12-13T20:28:33.586Z,1.10
2018-12-13T20:31:01.861Z,1.10
2018-12-13T20:33:30.024Z,1.00
2018-12-13T20:35:58.309Z,1.00
2018-12-13T20:38:27.078Z,1.00
2018-12-13T20:41:00.856Z,0.90
2018-12-13T20:43:25.468Z,0.90
2018-12-13T20:45:53.772Z,0.90
2018-12-13T20:48:22.037Z,0.90
2018-12-13T20:50:50.266Z,0.80
2018-12-13T20:53:18.454Z,0.80
2018-12-13T20:55:46.668Z,0.80
2018-12-13T20:58:14.875Z,0.80
2018-12-13T21:00:43.666Z,0.80
2018-12-13T21:03:11.875Z,0.80
2018-12-13T21:05:40.068Z,0.80
2018-12-13T21:08:08.324Z,0.70
2018-12-13T21:10:39.500Z,0.70
2018-12-13T21:13:07.720Z,0.70
2018-12-13T21:15:36.003Z,0.70
2018-12-13T21:18:04.230Z,0.70
2018-12-13T21:20:32.501Z,0.70
2018-12-13T21:23:00.785Z,0.70
2018-12-13T21:25:29.123Z,0.60
2018-12-13T21:27:57.336Z,0.60
2018-12-13T21:30:25.541Z,0.60
2018-12-13T21:32:53.883Z,0.60
2018-12-13T21:35:22.163Z,0.60
2018-12-13T21:37:50.419Z,0.50
2018-12-13T21:40:18.699Z,0.60
2018-12-13T21:42:46.973Z,0.60
2018-12-13T21:45:15.180Z,0.50
2018-12-13T21:47:43.417Z,0.50
2018-12-13T21:50:11.613Z,0.50
2018-12-13T21:52:39.809Z,0.40
2018-12-13T21:55:08.166Z,0.50
2018-12-13T21:57:36.487Z,0.40
2018-12-13T22:00:08.214Z,0.40
2018-12-13T22:02:36.727Z,0.50
2018-12-13T22:05:05.661Z,0.40
2018-12-13T22:07:33.902Z,0.40
2018-12-13T22:10:02.161Z,0.40
2018-12-13T22:12:30.332Z,0.40
2018-12-13T22:15:02.470Z,0.40
2018-12-13T22:17:29.545Z,0.40
2018-12-13T22:19:57.769Z,0.40
2018-12-13T22:22:26.035Z,0.30
2018-12-13T22:24:54.315Z,0.30
2018-12-13T22:27:22.523Z,0.30
2018-12-13T22:29:50.771Z,0.30
2018-12-13T22:32:18.956Z,0.20
2018-12-13T22:34:47.230Z,0.30
2018-12-13T22:37:15.522Z,0.20
2018-12-13T22:39:43.762Z,0.20
2018-12-13T22:42:11.949Z,0.20
2018-12-13T22:44:40.165Z,0.10
2018-12-13T22:47:08.395Z,0.10
2018-12-13T22:49:36.567Z,0.10
2018-12-13T22:52:04.990Z,0.10
2018-12-13T22:54:33.318Z,0.10
2018-12-13T22:57:01.586Z,0.00
2018-12-13T22:59:29.951Z,0.00
2018-12-13T23:01:58.144Z,0.00
2018-12-13T23:04:26.422Z,-0.10
2018-12-13T23:06:54.611Z,-0.10
2018-12-13T23:09:22.877Z,-0.10
2018-12-13T23:11:51.121Z,-0.10
2018-12-13T23:14:19.307Z,-0.10
2018-12-13T23:16:47.519Z,-0.10
2018-12-13T23:19:15.735Z,-0.10
2018-12-13T23:21:43.951Z,-0.20
2018-12-13T23:24:12.127Z,-0.20
2018-12-13T23:26:40.313Z,-0.20
2018-12-13T23:29:08.531Z,-0.20
2018-12-13T23:31:36.836Z,-0.20
2018-12-13T23:34:05.016Z,-0.20
2018-12-13T23:36:33.191Z,-0.20
2018-12-13T23:39:01.393Z,-0.20
2018-12-13T23:41:29.605Z,-0.20
2018-12-13T23:43:57.808Z,-0.30
2018-12-13T23:46:26.113Z,-0.30
2018-12-13T23:48:54.349Z,-0.30
2018-12-13T23:51:22.617Z,-0.30
2018-12-13T23:53:50.796Z,-0.30
2018-12-13T23:56:19.414Z,-0.40
2018-12-13T23:58:48.018Z,-0.40
